WXM80 ListenWXM80 Stop

You find our weather info also at:

UK Metoffice

WeatherCloud

Weather Underground

Northeastern Weather Network

AWEKAS

Citizen Weather Observer Program (CWOP)

HAMweather, WeatherForYou, PWS Weather


Weather Underground History page Text

Daily Summary for December 5, 2016 Units:  English    Metric   Both
« Previous Day
Next Day »
Daily Weekly Monthly Yearly Custom
  High: Low: Average:
Temperature: 48.5 °F 38.1 °F 43 °F
Dew Point: 43.6 °F 28.2 °F 36.2 °F
Humidity: 96 % 65 % 77 %
Wind Speed: 9.8 mph 0.0 mph 2.8 mph
Wind Gust: 16.1 mph - -
Wind:- - WSW
Pressure: 30.10 in 29.90 in -
Precipitation: 0.07 in    
Historical Graphs
 
 
Tabular Data for December 5, 2016
Time Temperature Dew Point Pressure Wind Wind Speed Wind Gust Humidity Rainfall Rate (Hourly)
00:02 38.4 °F 28.4 °F 30.09 in Calm     67 % 0.00 in
00:07 38.3 °F 28.7 °F 30.09 in Calm     68 % 0.00 in
00:12 38.3 °F 28.7 °F 30.09 in Calm     68 % 0.00 in
00:17 38.3 °F 28.3 °F 30.10 in Calm     67 % 0.00 in
00:22 38.2 °F 28.2 °F 30.10 in East 0.2 mph 2.3 mph 67 % 0.00 in
00:27 38.2 °F 28.2 °F 30.10 in Calm     67 % 0.00 in
00:32 38.2 °F 28.6 °F 30.10 in Calm     68 % 0.00 in
00:37 38.2 °F 28.2 °F 30.10 in Calm     67 % 0.00 in
00:43 38.2 °F 28.2 °F 30.10 in Calm     67 % 0.00 in
00:48 38.2 °F 28.6 °F 30.09 in Calm     68 % 0.00 in
00:53 38.2 °F 28.6 °F 30.09 in Calm     68 % 0.00 in
00:58 38.2 °F 28.9 °F 30.08 in Calm     69 % 0.00 in
01:03 38.2 °F 28.9 °F 30.09 in Calm     69 % 0.00 in
01:08 38.2 °F 29.3 °F 30.09 in Calm     70 % 0.00 in
01:13 38.2 °F 29.3 °F 30.09 in Calm     70 % 0.00 in
01:18 38.1 °F 28.8 °F 30.08 in ESE 2.1 mph 3.5 mph 69 % 0.00 in
01:23 38.1 °F 28.5 °F 30.08 in Calm     68 % 0.00 in
01:28 38.1 °F 28.8 °F 30.07 in SE 0.4 mph 2.3 mph 69 % 0.00 in
01:34 38.1 °F 28.8 °F 30.07 in SE 0.8 mph 2.3 mph 69 % 0.00 in
01:39 38.1 °F 28.8 °F 30.07 in SE 0.1 mph   69 % 0.00 in
01:44 38.1 °F 28.8 °F 30.07 in SE 0.1 mph 2.3 mph 69 % 0.00 in
01:49 38.2 °F 28.6 °F 30.07 in SSE 1.7 mph 3.5 mph 68 % 0.00 in
01:55 38.2 °F 28.6 °F 30.07 in SE 1.9 mph 3.0 mph 68 % 0.00 in
02:00 38.3 °F 28.7 °F 30.06 in SSE 2.0 mph 2.3 mph 68 % 0.00 in
02:05 38.3 °F 28.7 °F 30.06 in SSE 1.0 mph 4.0 mph 68 % 0.00 in
02:10 38.4 °F 29.1 °F 30.05 in SE 1.0 mph 5.0 mph 69 % 0.00 in
02:15 38.4 °F 29.1 °F 30.05 in SE 2.0 mph 5.0 mph 69 % 0.00 in
02:20 38.5 °F 29.2 °F 30.05 in SE 1.0 mph 4.0 mph 69 % 0.00 in
02:25 38.6 °F 29.3 °F 30.05 in SE 1.0 mph 5.0 mph 69 % 0.00 in
02:30 38.7 °F 29.4 °F 30.06 in SE 2.0 mph 4.0 mph 69 % 0.00 in
02:35 38.8 °F 29.1 °F 30.06 in SE 1.0 mph 4.0 mph 68 % 0.00 in
02:40 38.9 °F 29.6 °F 30.05 in SE 0.5 mph 3.5 mph 69 % 0.00 in
02:45 39.0 °F 29.7 °F 30.07 in SSE 1.5 mph 3.5 mph 69 % 0.00 in
02:50 39.1 °F 29.4 °F 30.07 in SSE 0.9 mph 2.3 mph 68 % 0.00 in
02:55 39.2 °F 29.5 °F 30.07 in Calm     68 % 0.00 in
03:00 39.2 °F 29.5 °F 30.07 in SSE 0.4 mph 1.2 mph 68 % 0.00 in
03:05 39.3 °F 29.6 °F 30.07 in SSE 0.4 mph 1.2 mph 68 % 0.00 in
03:10 39.4 °F 29.7 °F 30.07 in Calm     68 % 0.00 in
03:15 39.5 °F 29.8 °F 30.07 in Calm     68 % 0.00 in
03:20 39.5 °F 30.5 °F 30.06 in SSE 0.9 mph 2.3 mph 70 % 0.00 in
03:26 39.5 °F 31.2 °F 30.05 in SE 1.4 mph 3.5 mph 72 % 0.00 in
03:32 39.4 °F 31.8 °F 30.04 in SE 3.1 mph 5.8 mph 74 % 0.00 in
03:37 39.4 °F 32.5 °F 30.05 in SE 2.8 mph 4.6 mph 76 % 0.00 in
03:42 39.5 °F 33.2 °F 30.04 in SSE 0.8 mph 5.8 mph 78 % 0.00 in
03:47 39.6 °F 33.6 °F 30.04 in SE 1.1 mph 3.5 mph 79 % 0.00 in
03:52 39.6 °F 33.9 °F 30.03 in Calm   1.2 mph 80 % 0.00 in
03:57 39.6 °F 34.2 °F 30.03 in SE 0.4 mph 2.3 mph 81 % 0.00 in
04:02 39.6 °F 34.6 °F 30.03 in SSE 4.2 mph 9.2 mph 82 % 0.00 in
04:07 39.7 °F 35.0 °F 30.03 in SSE 2.4 mph 6.9 mph 83 % 0.00 in
04:12 39.8 °F 35.4 °F 30.03 in SE 1.4 mph 2.3 mph 84 % 0.00 in
04:18 39.8 °F 35.4 °F 30.02 in SE 0.3 mph 2.3 mph 84 % 0.00 in
04:23 39.8 °F 35.7 °F 30.03 in SE 0.5 mph 3.5 mph 85 % 0.00 in
04:28 39.8 °F 35.7 °F 30.02 in SSE 1.3 mph 4.0 mph 85 % 0.01 in
04:33 39.8 °F 36.0 °F 30.02 in ESE 1.6 mph 3.5 mph 86 % 0.01 in
04:38 39.7 °F 35.9 °F 30.01 in SE 1.4 mph 4.6 mph 86 % 0.01 in
04:43 39.7 °F 36.1 °F 30.01 in SE 2.4 mph 3.5 mph 87 % 0.01 in
04:48 39.6 °F 36.0 °F 30.00 in SSE 1.6 mph 4.0 mph 87 % 0.01 in
04:53 39.5 °F 36.0 °F 30.02 in SSE 0.2 mph 2.3 mph 87 % 0.01 in
04:58 39.5 °F 36.2 °F 30.00 in SE 1.2 mph 2.3 mph 88 % 0.02 in
05:03 39.5 °F 36.2 °F 30.00 in SSE 0.2 mph 3.5 mph 88 % 0.02 in
05:09 39.5 °F 36.5 °F 30.00 in SSE 0.1 mph 1.2 mph 89 % 0.02 in
05:14 39.5 °F 36.5 °F 30.00 in SSE 1.6 mph 3.5 mph 89 % 0.02 in
05:19 39.5 °F 36.8 °F 30.00 in Calm     90 % 0.03 in
05:24 39.5 °F 36.8 °F 30.00 in SSE 0.3 mph 1.2 mph 90 % 0.02 in
05:29 39.5 °F 36.8 °F 29.99 in SSE 0.5 mph 2.3 mph 90 % 0.02 in
05:34 39.5 °F 37.1 °F 29.99 in SSE 0.1 mph 1.2 mph 91 % 0.02 in
05:39 39.5 °F 37.1 °F 29.99 in Calm     91 % 0.02 in
05:44 39.4 °F 37.0 °F 29.99 in Calm     91 % 0.02 in
05:49 39.4 °F 37.0 °F 29.99 in Calm     91 % 0.02 in
05:54 39.4 °F 37.0 °F 29.99 in Calm     91 % 0.02 in
06:00 39.4 °F 37.0 °F 29.98 in Calm     91 % 0.01 in
06:05 39.4 °F 37.0 °F 29.98 in Calm   1.2 mph 91 % 0.01 in
06:10 39.4 °F 37.0 °F 29.99 in Calm     91 % 0.00 in
06:15 39.3 °F 36.9 °F 29.99 in Calm     91 % 0.00 in
06:20 39.3 °F 36.9 °F 29.98 in Calm     91 % 0.01 in
06:25 39.4 °F 37.3 °F 29.98 in Calm     92 % 0.00 in
06:30 39.4 °F 37.3 °F 29.98 in Calm     92 % 0.00 in
06:35 39.5 °F 37.4 °F 29.98 in Calm     92 % 0.01 in
06:40 39.5 °F 37.4 °F 29.98 in Calm     92 % 0.00 in
06:45 39.5 °F 37.4 °F 29.98 in Calm     92 % 0.00 in
06:50 39.5 °F 37.4 °F 29.98 in Calm     92 % 0.02 in
06:55 39.5 °F 37.4 °F 29.99 in Calm   2.0 mph 92 % 0.00 in
07:00 39.6 °F 37.5 °F 29.99 in WSW 0.6 mph 3.0 mph 92 % 0.02 in
07:05 39.7 °F 37.8 °F 29.98 in West 0.9 mph 3.5 mph 93 % 0.02 in
07:10 39.8 °F 37.9 °F 29.98 in SW 1.6 mph 3.5 mph 93 % 0.02 in
07:15 39.9 °F 38.0 °F 29.98 in West 2.0 mph 3.5 mph 93 % 0.03 in
07:20 40.0 °F 38.1 °F 29.98 in West 0.1 mph 2.3 mph 93 % 0.02 in
07:25 40.0 °F 38.4 °F 29.98 in West 0.8 mph 3.5 mph 94 % 0.02 in
07:30 40.1 °F 38.5 °F 29.98 in WSW 2.8 mph 3.5 mph 94 % 0.02 in
07:35 40.2 °F 38.6 °F 29.98 in WSW 0.3 mph 2.3 mph 94 % 0.02 in
07:40 40.2 °F 38.6 °F 29.99 in West 2.1 mph 3.5 mph 94 % 0.02 in
07:46 40.3 °F 38.7 °F 29.99 in WSW 0.9 mph 3.5 mph 94 % 0.01 in
07:51 40.4 °F 38.8 °F 29.99 in WSW 0.6 mph 2.3 mph 94 % 0.01 in
07:56 40.4 °F 38.8 °F 29.99 in WSW 2.6 mph 3.5 mph 94 % 0.01 in
08:01 40.5 °F 38.9 °F 29.99 in WSW 1.5 mph 3.5 mph 94 % 0.02 in
08:06 40.5 °F 38.9 °F 29.99 in SW 1.9 mph 4.0 mph 94 % 0.02 in
08:11 40.5 °F 38.9 °F 29.98 in SW 0.7 mph 1.2 mph 94 % 0.02 in
08:16 40.5 °F 38.9 °F 29.98 in SW 1.1 mph 3.5 mph 94 % 0.01 in
08:21 40.6 °F 39.0 °F 29.98 in SW 1.8 mph 3.5 mph 94 % 0.01 in
08:26 40.6 °F 39.0 °F 29.98 in WSW 1.6 mph 3.5 mph 94 % 0.01 in
08:31 40.7 °F 39.4 °F 29.98 in WSW 2.7 mph 3.5 mph 95 % 0.01 in
08:37 40.7 °F 39.4 °F 29.98 in SW 2.3 mph 3.5 mph 95 % 0.01 in
08:42 40.8 °F 39.5 °F 29.97 in SW 1.9 mph 3.5 mph 95 % 0.01 in
08:47 40.8 °F 39.5 °F 29.97 in SW 1.1 mph 2.3 mph 95 % 0.01 in
08:52 40.9 °F 39.6 °F 29.97 in WSW 3.8 mph 4.6 mph 95 % 0.01 in
08:57 40.9 °F 39.6 °F 29.97 in Calm   1.2 mph 95 % 0.01 in
09:02 41.0 °F 39.7 °F 29.97 in WSW 2.8 mph 5.0 mph 95 % 0.00 in
09:07 41.1 °F 39.8 °F 29.97 in WSW 1.8 mph 3.5 mph 95 % 0.00 in
09:12 41.2 °F 39.9 °F 29.97 in WSW 0.8 mph 2.3 mph 95 % 0.00 in
09:17 41.2 °F 39.9 °F 29.97 in WSW 0.4 mph 2.3 mph 95 % 0.00 in
09:22 41.3 °F 40.0 °F 29.97 in WSW 0.4 mph 2.0 mph 95 % 0.00 in
09:27 41.4 °F 40.1 °F 29.97 in WSW 0.1 mph 1.2 mph 95 % 0.00 in
09:32 41.4 °F 40.1 °F 29.97 in WSW 2.5 mph 4.6 mph 95 % 0.00 in
09:37 41.5 °F 40.2 °F 29.98 in West 0.9 mph 2.3 mph 95 % 0.00 in
09:43 41.6 °F 40.3 °F 29.97 in WSW 2.9 mph 3.0 mph 95 % 0.00 in
09:48 41.8 °F 40.5 °F 29.97 in SW 2.2 mph 4.0 mph 95 % 0.00 in
09:53 41.9 °F 40.6 °F 29.97 in SW 0.9 mph 3.5 mph 95 % 0.00 in
09:58 42.0 °F 40.7 °F 29.97 in West 0.5 mph 2.3 mph 95 % 0.00 in
10:03 42.1 °F 40.8 °F 29.97 in SW 2.2 mph 3.5 mph 95 % 0.00 in
10:08 42.3 °F 41.0 °F 29.97 in SW 0.2 mph 2.3 mph 95 % 0.00 in
10:13 42.5 °F 41.4 °F 29.97 in WSW 2.7 mph 4.6 mph 96 % 0.00 in
10:23 43.1 °F 42.0 °F 29.97 in SW 2.4 mph 5.0 mph 96 % 0.00 in
10:28 43.3 °F 42.2 °F 29.96 in West 5.0 mph 8.1 mph 96 % 0.00 in
10:34 43.4 °F 42.1 °F 29.96 in SSW 4.1 mph 7.0 mph 95 % 0.00 in
10:39 43.5 °F 42.4 °F 29.96 in SSW 4.4 mph 8.1 mph 96 % 0.00 in
10:44 43.7 °F 42.4 °F 29.95 in WSW 7.5 mph 10.4 mph 95 % 0.00 in
10:49 43.9 °F 42.6 °F 29.95 in SW 4.1 mph 7.0 mph 95 % 0.00 in
10:54 44.2 °F 42.9 °F 29.94 in WSW 5.1 mph 8.0 mph 95 % 0.00 in
10:59 44.4 °F 43.1 °F 29.93 in WSW 3.5 mph 5.8 mph 95 % 0.00 in
11:04 44.7 °F 43.4 °F 29.93 in SW 4.4 mph 8.1 mph 95 % 0.00 in
11:14 45.2 °F 43.6 °F 29.93 in SW 1.8 mph 5.8 mph 94 % 0.00 in
11:20 45.5 °F 43.6 °F 29.93 in SW 4.8 mph 8.1 mph 93 % 0.00 in
11:25 45.7 °F 43.5 °F 29.93 in West 5.4 mph 11.5 mph 92 % 0.00 in
11:30 45.8 °F 43.0 °F 29.93 in WSW 5.0 mph 12.0 mph 90 % 0.00 in
11:35 45.8 °F 42.7 °F 29.93 in WSW 3.0 mph 9.0 mph 89 % 0.00 in
11:40 45.9 °F 42.2 °F 29.93 in West 2.9 mph 11.5 mph 87 % 0.00 in
11:45 45.9 °F 41.9 °F 29.93 in West 3.0 mph 10.0 mph 86 % 0.00 in
11:50 45.9 °F 41.9 °F 29.93 in West 5.0 mph 9.0 mph 86 % 0.00 in
11:55 45.9 °F 41.6 °F 29.92 in SW 6.2 mph 14.0 mph 85 % 0.00 in
12:00 45.9 °F 41.6 °F 29.92 in WSW 8.6 mph 15.0 mph 85 % 0.00 in
12:05 46.1 °F 41.8 °F 29.91 in WSW 9.8 mph 16.1 mph 85 % 0.00 in
12:10 46.2 °F 41.6 °F 29.91 in WSW 7.3 mph 10.4 mph 84 % 0.00 in
12:15 46.4 °F 41.8 °F 29.91 in WSW 6.3 mph 12.0 mph 84 % 0.00 in
12:20 46.6 °F 41.7 °F 29.91 in NW 5.8 mph 11.5 mph 83 % 0.00 in
12:25 46.8 °F 41.9 °F 29.91 in West 5.1 mph 9.0 mph 83 % 0.00 in
12:30 46.9 °F 42.0 °F 29.91 in North 4.2 mph 13.0 mph 83 % 0.00 in
12:35 47.1 °F 42.2 °F 29.91 in West 7.5 mph 11.5 mph 83 % 0.00 in
12:41 47.3 °F 42.4 °F 29.91 in West 3.4 mph 5.8 mph 83 % 0.00 in
12:46 47.5 °F 42.0 °F 29.91 in SW 4.8 mph 7.0 mph 81 % 0.00 in
12:51 47.6 °F 42.1 °F 29.91 in WSW 6.6 mph 10.4 mph 81 % 0.00 in
12:56 47.6 °F 42.1 °F 29.91 in West 4.1 mph 11.5 mph 81 % 0.00 in
13:01 47.6 °F 41.7 °F 29.91 in SW 5.6 mph 11.5 mph 80 % 0.00 in
13:06 47.6 °F 41.4 °F 29.90 in WNW 4.6 mph 9.2 mph 79 % 0.00 in
13:16 47.8 °F 41.9 °F 29.90 in West 5.4 mph 10.4 mph 80 % 0.00 in
13:21 47.9 °F 41.4 °F 29.91 in WNW 7.7 mph 11.5 mph 78 % 0.00 in
13:26 48.0 °F 41.8 °F 29.91 in WNW 4.0 mph 8.0 mph 79 % 0.00 in
13:32 48.1 °F 41.9 °F 29.92 in West 1.9 mph 11.5 mph 79 % 0.00 in
13:37 48.3 °F 42.1 °F 29.92 in WNW 4.1 mph 6.9 mph 79 % 0.00 in
13:42 48.5 °F 41.6 °F 29.92 in NW 3.9 mph 9.2 mph 77 % 0.00 in
13:47 48.5 °F 41.3 °F 29.92 in NW 6.1 mph 10.0 mph 76 % 0.00 in
13:52 48.5 °F 41.6 °F 29.92 in WNW 2.2 mph 9.2 mph 77 % 0.00 in
13:57 48.5 °F 41.3 °F 29.92 in West 0.7 mph 6.9 mph 76 % 0.00 in
14:02 48.4 °F 40.8 °F 29.93 in WNW 4.8 mph 9.2 mph 75 % 0.00 in
14:07 48.3 °F 40.4 °F 29.92 in NNW 5.4 mph 9.2 mph 74 % 0.00 in
14:12 48.2 °F 39.9 °F 29.92 in WNW 7.0 mph 12.7 mph 73 % 0.00 in
14:17 48.1 °F 39.5 °F 29.93 in WNW 4.6 mph 12.0 mph 72 % 0.00 in
14:23 48.0 °F 39.8 °F 29.92 in West 4.3 mph 9.2 mph 73 % 0.00 in
14:28 47.9 °F 39.3 °F 29.93 in WSW 4.5 mph 10.4 mph 72 % 0.00 in
14:33 47.7 °F 39.1 °F 29.93 in West 4.5 mph 6.9 mph 72 % 0.00 in
14:38 47.6 °F 39.4 °F 29.93 in SW 3.3 mph 8.1 mph 73 % 0.00 in
14:43 47.6 °F 39.0 °F 29.93 in WNW 5.2 mph 9.2 mph 72 % 0.00 in
14:48 47.6 °F 38.7 °F 29.93 in SW 5.3 mph 10.4 mph 71 % 0.00 in
14:58 47.6 °F 38.3 °F 29.94 in West 7.1 mph 11.5 mph 70 % 0.00 in
15:03 47.6 °F 37.9 °F 29.94 in NW 4.0 mph 9.2 mph 69 % 0.00 in
15:08 47.6 °F 37.6 °F 29.95 in West 5.9 mph 10.4 mph 68 % 0.00 in
15:13 47.6 °F 37.6 °F 29.94 in West 3.3 mph 6.0 mph 68 % 0.00 in
15:18 47.5 °F 37.5 °F 29.94 in NW 3.5 mph 11.5 mph 68 % 0.00 in
15:24 47.4 °F 37.4 °F 29.94 in West 3.1 mph 6.0 mph 68 % 0.00 in
15:29 47.4 °F 37.0 °F 29.95 in WSW 2.8 mph 6.9 mph 67 % 0.00 in
15:34 47.4 °F 37.0 °F 29.95 in West 3.4 mph 8.1 mph 67 % 0.00 in
15:39 47.4 °F 37.0 °F 29.95 in WNW 4.5 mph 8.1 mph 67 % 0.00 in
15:44 47.4 °F 37.0 °F 29.95 in West 2.8 mph 5.0 mph 67 % 0.00 in
15:49 47.5 °F 37.5 °F 29.95 in West 2.0 mph 8.1 mph 68 % 0.00 in
15:54 47.5 °F 37.5 °F 29.95 in WNW 2.3 mph 4.6 mph 68 % 0.00 in
15:59 47.4 °F 37.7 °F 29.95 in NW 4.9 mph 9.2 mph 69 % 0.00 in
16:09 47.3 °F 37.3 °F 29.95 in WNW 3.5 mph 10.4 mph 68 % 0.00 in
16:14 47.2 °F 37.2 °F 29.96 in NW 4.1 mph 5.0 mph 68 % 0.00 in
16:20 47.2 °F 36.8 °F 29.96 in North 1.7 mph 9.0 mph 67 % 0.00 in
16:25 47.1 °F 36.7 °F 29.97 in NNW 3.0 mph 12.0 mph 67 % 0.00 in
16:30 46.9 °F 36.5 °F 29.97 in NNW 4.0 mph 6.9 mph 67 % 0.00 in
16:35 46.9 °F 36.9 °F 29.97 in NW 5.0 mph 12.0 mph 68 % 0.00 in
16:40 46.8 °F 36.8 °F 29.98 in NW 3.0 mph 10.0 mph 68 % 0.00 in
16:45 46.8 °F 36.8 °F 29.99 in NW 3.0 mph 10.0 mph 68 % 0.00 in
16:50 46.8 °F 37.1 °F 29.99 in NW 3.0 mph 8.0 mph 69 % 0.00 in
16:55 46.8 °F 37.5 °F 29.99 in WNW 2.1 mph 4.6 mph 70 % 0.00 in
17:00 46.8 °F 37.9 °F 29.99 in NW 7.2 mph 11.5 mph 71 % 0.00 in
17:05 46.9 °F 37.6 °F 29.99 in NNW 5.1 mph 11.5 mph 70 % 0.00 in
17:15 46.8 °F 38.2 °F 29.99 in NNW 3.2 mph 6.9 mph 72 % 0.00 in
17:20 46.7 °F 37.8 °F 29.99 in NW 2.7 mph 5.8 mph 71 % 0.00 in
17:25 46.6 °F 36.6 °F 29.99 in WNW 5.0 mph 9.0 mph 68 % 0.00 in
17:31 46.4 °F 36.4 °F 29.99 in NW 7.8 mph 9.0 mph 68 % 0.00 in
17:36 46.3 °F 36.7 °F 29.99 in NW 3.8 mph 11.5 mph 69 % 0.00 in
17:41 46.1 °F 36.5 °F 29.99 in NW 6.5 mph 6.9 mph 69 % 0.00 in
17:46 46.0 °F 36.4 °F 29.98 in NW 6.7 mph 12.0 mph 69 % 0.00 in
17:51 45.9 °F 36.7 °F 29.98 in West 3.1 mph 6.9 mph 70 % 0.00 in
17:56 45.8 °F 36.9 °F 29.98 in WNW 3.7 mph 9.2 mph 71 % 0.00 in
18:01 45.6 °F 36.4 °F 29.98 in WNW 2.9 mph 8.1 mph 70 % 0.00 in
18:06 45.6 °F 36.7 °F 29.98 in NW 5.5 mph 8.0 mph 71 % 0.00 in
18:11 45.4 °F 36.5 °F 29.98 in West 2.5 mph 3.5 mph 71 % 0.00 in
18:16 45.4 °F 36.5 °F 29.98 in NNW 2.7 mph 9.2 mph 71 % 0.00 in
18:22 45.3 °F 36.8 °F 29.98 in NW 3.6 mph 4.6 mph 72 % 0.00 in
18:27 45.2 °F 36.4 °F 29.99 in WNW 7.2 mph 11.5 mph 71 % 0.00 in
18:32 45.2 °F 36.4 °F 29.99 in NNW 1.1 mph 6.9 mph 71 % 0.00 in
18:37 45.1 °F 35.9 °F 29.99 in WNW 3.5 mph 11.5 mph 70 % 0.00 in
18:42 45.1 °F 35.9 °F 29.99 in WNW 4.3 mph 12.0 mph 70 % 0.00 in
18:47 45.1 °F 35.2 °F 29.99 in North 6.7 mph 12.7 mph 68 % 0.00 in
18:52 45.1 °F 34.8 °F 29.99 in NNW 5.3 mph 10.4 mph 67 % 0.00 in
18:57 45.1 °F 35.2 °F 29.99 in North 5.6 mph 12.7 mph 68 % 0.00 in
19:02 45.1 °F 34.8 °F 29.99 in NNW 6.8 mph 8.1 mph 67 % 0.00 in
19:07 45.1 °F 34.8 °F 30.00 in NW 4.3 mph 7.0 mph 67 % 0.00 in
19:13 45.0 °F 34.7 °F 30.00 in NNW 6.1 mph 10.4 mph 67 % 0.00 in
19:18 45.0 °F 33.9 °F 30.00 in West 3.4 mph 11.5 mph 65 % 0.00 in
19:23 45.0 °F 34.3 °F 30.00 in NNW 5.9 mph 11.5 mph 66 % 0.00 in
19:28 45.0 °F 34.3 °F 30.00 in North 5.4 mph 11.5 mph 66 % 0.00 in
19:33 44.9 °F 34.2 °F 30.01 in WNW 5.8 mph 11.5 mph 66 % 0.00 in
19:38 44.9 °F 34.2 °F 30.01 in NW 5.6 mph 9.0 mph 66 % 0.00 in
19:43 44.9 °F 34.6 °F 30.01 in WNW 7.7 mph 12.7 mph 67 % 0.00 in
19:48 44.9 °F 34.2 °F 30.01 in WNW 2.6 mph 10.4 mph 66 % 0.00 in
19:53 44.9 °F 33.8 °F 30.01 in NW 7.7 mph 12.7 mph 65 % 0.00 in
19:58 44.8 °F 34.1 °F 30.01 in WNW 2.5 mph 8.1 mph 66 % 0.00 in
20:09 44.7 °F 34.4 °F 30.02 in NW 3.5 mph 4.6 mph 67 % 0.00 in
20:14 44.6 °F 33.9 °F 30.02 in WNW 3.3 mph 8.1 mph 66 % 0.00 in
20:19 44.5 °F 33.8 °F 30.02 in NW 3.7 mph 6.9 mph 66 % 0.00 in
20:24 44.4 °F 33.7 °F 30.02 in North 3.3 mph 9.2 mph 66 % 0.00 in
20:29 44.4 °F 33.7 °F 30.02 in NNW 4.3 mph 7.0 mph 66 % 0.00 in
20:34 44.3 °F 33.7 °F 30.03 in NW 3.0 mph 6.9 mph 66 % 0.00 in
20:39 44.3 °F 34.0 °F 30.03 in NNW 1.5 mph 5.0 mph 67 % 0.00 in
20:44 44.3 °F 34.4 °F 30.03 in NW 2.0 mph 4.6 mph 68 % 0.00 in
20:49 44.2 °F 33.9 °F 30.03 in NNW 3.3 mph 8.1 mph 67 % 0.00 in
20:55 44.2 °F 33.9 °F 30.04 in NNW 6.0 mph 15.0 mph 67 % 0.00 in
21:00 44.3 °F 34.0 °F 30.04 in NNW 4.5 mph 6.9 mph 67 % 0.00 in
21:05 44.3 °F 34.0 °F 30.04 in NW 6.0 mph 12.0 mph 67 % 0.00 in
21:10 44.3 °F 33.7 °F 30.04 in WNW 3.0 mph 12.0 mph 66 % 0.00 in
21:15 44.3 °F 33.7 °F 30.04 in WNW 3.0 mph 8.0 mph 66 % 0.00 in
21:20 44.3 °F 33.7 °F 30.05 in WNW 5.0 mph 9.0 mph 66 % 0.00 in
21:25 44.3 °F 33.6 °F 30.05 in West 5.0 mph 12.0 mph 66 % 0.00 in
21:30 44.2 °F 33.6 °F 30.05 in WNW 3.0 mph 12.0 mph 66 % 0.00 in
21:35 44.2 °F 33.6 °F 30.05 in WNW 3.0 mph 10.0 mph 66 % 0.00 in
21:40 44.2 °F 33.5 °F 30.05 in WNW 2.0 mph 8.0 mph 66 % 0.00 in
21:45 44.1 °F 33.5 °F 30.04 in WNW 5.0 mph 8.0 mph 66 % 0.00 in
21:50 44.0 °F 33.4 °F 30.04 in WNW 4.2 mph 9.2 mph 66 % 0.00 in
21:55 43.9 °F 33.3 °F 30.04 in WNW 3.0 mph 12.0 mph 66 % 0.00 in
22:00 43.9 °F 33.3 °F 30.04 in NW 1.9 mph 8.1 mph 66 % 0.00 in
22:05 43.8 °F 33.2 °F 30.04 in NW 3.0 mph 11.5 mph 66 % 0.00 in
22:10 43.8 °F 33.6 °F 30.05 in West 4.7 mph 8.1 mph 67 % 0.00 in
22:15 43.8 °F 33.6 °F 30.05 in NNW 5.3 mph 12.7 mph 67 % 0.00 in
22:20 43.8 °F 33.2 °F 30.05 in West 6.2 mph 10.4 mph 66 % 0.00 in
22:25 43.8 °F 33.6 °F 30.04 in WNW 6.6 mph 11.5 mph 67 % 0.00 in
22:30 43.8 °F 33.6 °F 30.05 in WSW 3.9 mph 8.1 mph 67 % 0.00 in
22:35 43.8 °F 33.6 °F 30.05 in North 5.3 mph 10.4 mph 67 % 0.00 in
22:40 43.8 °F 33.6 °F 30.05 in West 5.1 mph 6.9 mph 67 % 0.00 in
22:46 43.7 °F 33.8 °F 30.05 in West 3.2 mph 6.9 mph 68 % 0.00 in
22:51 43.6 °F 33.7 °F 30.05 in WNW 3.7 mph 10.4 mph 68 % 0.00 in
22:56 43.6 °F 33.7 °F 30.05 in WSW 4.9 mph 8.1 mph 68 % 0.00 in
23:01 43.4 °F 33.9 °F 30.05 in NNW 3.8 mph 8.1 mph 69 % 0.00 in
23:06 43.4 °F 33.5 °F 30.05 in West 1.8 mph 3.5 mph 68 % 0.00 in
23:11 43.3 °F 33.4 °F 30.05 in WNW 6.8 mph 12.0 mph 68 % 0.00 in
23:16 43.2 °F 33.3 °F 30.05 in NW 3.0 mph 7.0 mph 68 % 0.00 in
23:21 43.2 °F 33.3 °F 30.05 in WNW 3.9 mph 11.5 mph 68 % 0.00 in
23:26 43.1 °F 33.3 °F 30.05 in WNW 3.1 mph 4.6 mph 68 % 0.00 in
23:31 43.1 °F 33.3 °F 30.05 in WSW 2.7 mph 5.8 mph 68 % 0.00 in
23:36 43.1 °F 33.6 °F 30.05 in WSW 4.1 mph 5.0 mph 69 % 0.00 in
23:41 43.0 °F 33.5 °F 30.05 in WSW 3.5 mph 7.0 mph 69 % 0.00 in
23:47 42.9 °F 33.4 °F 30.06 in WNW 3.3 mph 6.9 mph 69 % 0.00 in
23:52 42.8 °F 33.3 °F 30.06 in WNW 2.3 mph 4.6 mph 69 % 0.00 in
23:57 42.7 °F 33.2 °F 30.06 in WNW 3.3 mph 10.4 mph 69 % 0.00 in
Crab Meadow Weather
Compliments of Weather Underground - 3 mb

Script developed by  Jim McMurry - jmcmurry@mwt.net Adapted for the template by  Wim van der Kuil - Leuven-Template.eu

Astronomy: Neptune has at least 11 moons.